createdAt,value
2017-10-28T00:00:24.309Z,979.05
2017-10-28T00:01:33.678Z,979.07
2017-10-28T00:02:43.047Z,979.07
2017-10-28T00:03:52.415Z,979.01
2017-10-28T00:05:01.444Z,979.03
2017-10-28T00:06:10.802Z,979.02
2017-10-28T00:07:20.168Z,979.01
2017-10-28T00:08:29.861Z,978.93
2017-10-28T00:09:38.896Z,978.97
2017-10-28T00:10:47.920Z,978.94
2017-10-28T00:11:56.949Z,978.93
2017-10-28T00:13:05.980Z,978.89
2017-10-28T00:14:15.340Z,978.87
2017-10-28T00:15:24.699Z,978.82
2017-10-28T00:16:34.059Z,978.82
2017-10-28T00:17:43.421Z,978.79
2017-10-28T00:18:52.453Z,978.78
2017-10-28T00:20:01.819Z,978.79
2017-10-28T00:21:10.852Z,978.77
2017-10-28T00:22:19.889Z,978.78
2017-10-28T00:23:28.916Z,978.8
2017-10-28T00:24:37.610Z,978.78
2017-10-28T00:25:46.313Z,978.77
2017-10-28T00:26:55.340Z,978.72
2017-10-28T00:28:04.037Z,978.66
2017-10-28T00:29:13.068Z,978.7
2017-10-28T00:30:22.107Z,978.69
2017-10-28T00:31:31.462Z,978.67
2017-10-28T00:32:40.157Z,978.66
2017-10-28T00:33:49.854Z,978.65
2017-10-28T00:34:59.560Z,978.69
2017-10-28T00:36:08.602Z,978.75
2017-10-28T00:37:18.297Z,978.7
2017-10-28T00:38:27.667Z,978.71
2017-10-28T00:39:37.025Z,978.69
2017-10-28T00:40:46.060Z,978.61
2017-10-28T00:41:55.438Z,978.61
2017-10-28T00:43:05.137Z,978.64
2017-10-28T00:44:14.833Z,978.62
2017-10-28T00:45:24.523Z,978.7
2017-10-28T00:46:33.559Z,978.71
2017-10-28T00:47:42.924Z,978.61
2017-10-28T00:48:51.622Z,978.61
2017-10-28T00:50:00.660Z,978.63
2017-10-28T00:51:09.687Z,978.59
2017-10-28T00:52:18.384Z,978.48
2017-10-28T00:53:27.080Z,978.49
2017-10-28T00:54:36.447Z,978.46
2017-10-28T00:55:45.484Z,978.42
2017-10-28T00:56:54.181Z,978.34
2017-10-28T00:58:03.882Z,978.34
2017-10-28T00:59:12.577Z,978.31
2017-10-28T01:00:21.277Z,978.31
2017-10-28T01:01:30.638Z,978.24
2017-10-28T01:02:40.029Z,978.28
2017-10-28T01:03:49.056Z,978.32
2017-10-28T01:04:58.417Z,978.33
2017-10-28T01:06:07.782Z,978.33
2017-10-28T01:07:16.479Z,978.28
2017-10-28T01:08:25.841Z,978.28
2017-10-28T01:09:34.878Z,978.28
2017-10-28T01:10:43.577Z,978.19
2017-10-28T01:11:52.936Z,978.09
2017-10-28T01:13:02.303Z,978.08
2017-10-28T01:14:10.996Z,978.01
2017-10-28T01:15:19.695Z,977.95
2017-10-28T01:16:29.394Z,977.89
2017-10-28T01:17:38.422Z,977.95
2017-10-28T01:18:47.451Z,977.94
2017-10-28T01:19:56.817Z,977.83
2017-10-28T01:21:05.845Z,977.82
2017-10-28T01:22:15.885Z,977.84
2017-10-28T01:23:24.903Z,977.87
2017-10-28T01:24:33.934Z,977.8
2017-10-28T01:25:43.313Z,977.83
2017-10-28T01:26:52.677Z,977.85
2017-10-28T01:28:02.038Z,977.75
2017-10-28T01:29:11.070Z,977.78
2017-10-28T01:30:20.439Z,977.78
2017-10-28T01:31:29.143Z,977.75
2017-10-28T01:32:38.498Z,977.72
2017-10-28T01:33:47.194Z,977.73
2017-10-28T01:34:56.223Z,977.74
2017-10-28T01:36:05.257Z,977.71
2017-10-28T01:37:14.633Z,977.62
2017-10-28T01:38:23.993Z,977.58
2017-10-28T01:39:33.024Z,977.53
2017-10-28T01:40:41.732Z,977.58
2017-10-28T01:41:50.426Z,977.57
2017-10-28T01:42:59.456Z,977.54
2017-10-28T01:44:08.491Z,977.52
2017-10-28T01:45:17.520Z,977.46
2017-10-28T01:46:26.554Z,977.46
2017-10-28T01:47:35.604Z,977.39
2017-10-28T01:48:44.969Z,977.36
2017-10-28T01:49:54.006Z,977.37
2017-10-28T01:51:03.037Z,977.33
2017-10-28T01:52:11.735Z,977.41
2017-10-28T01:53:20.765Z,977.32
2017-10-28T01:54:29.465Z,977.36
2017-10-28T01:55:38.166Z,977.36
2017-10-28T01:56:46.862Z,977.32
2017-10-28T01:57:56.567Z,977.33
2017-10-28T01:59:05.594Z,977.31
2017-10-28T02:00:14.296Z,977.29
2017-10-28T02:01:22.988Z,977.27
2017-10-28T02:02:32.686Z,977.27
2017-10-28T02:03:41.716Z,977.26
2017-10-28T02:04:50.746Z,977.23
2017-10-28T02:06:00.790Z,977.2
2017-10-28T02:07:10.155Z,977.25
2017-10-28T02:08:19.186Z,977.2
2017-10-28T02:09:27.889Z,977.22
2017-10-28T02:10:37.259Z,977.22
2017-10-28T02:11:46.293Z,977.2
2017-10-28T02:12:54.990Z,977.18
2017-10-28T02:14:04.351Z,977.16
2017-10-28T02:15:14.057Z,977.17
2017-10-28T02:16:23.087Z,977.19
2017-10-28T02:17:32.119Z,977.17
2017-10-28T02:18:41.506Z,977.18
2017-10-28T02:19:50.876Z,977.14
2017-10-28T02:21:00.238Z,977.07
2017-10-28T02:22:09.270Z,977.06
2017-10-28T02:23:18.302Z,976.96
2017-10-28T02:24:27.333Z,976.92
2017-10-28T02:25:37.025Z,976.93
2017-10-28T02:26:46.058Z,976.83
2017-10-28T02:27:55.089Z,976.81
2017-10-28T02:29:04.121Z,976.76
2017-10-28T02:30:13.491Z,976.72
2017-10-28T02:31:22.520Z,976.74
2017-10-28T02:32:31.566Z,976.67
2017-10-28T02:33:40.603Z,976.63
2017-10-28T02:34:49.637Z,976.61
2017-10-28T02:35:59.340Z,976.64
2017-10-28T02:37:08.047Z,976.62
2017-10-28T02:38:17.078Z,976.62
2017-10-28T02:39:25.781Z,976.58
2017-10-28T02:40:35.147Z,976.54
2017-10-28T02:41:44.183Z,976.52
2017-10-28T02:42:53.218Z,976.48
2017-10-28T02:44:02.590Z,976.49
2017-10-28T02:45:11.617Z,976.49
2017-10-28T02:46:20.323Z,976.5
2017-10-28T02:47:29.685Z,976.46
2017-10-28T02:48:38.382Z,976.44
2017-10-28T02:49:47.747Z,976.48
2017-10-28T02:50:56.779Z,976.47
2017-10-28T02:52:06.149Z,976.49
2017-10-28T02:53:15.528Z,976.47
2017-10-28T02:54:24.556Z,976.45
2017-10-28T02:55:33.585Z,976.42
2017-10-28T02:56:42.300Z,976.38
2017-10-28T02:57:51.662Z,976.4
2017-10-28T02:59:00.696Z,976.38
2017-10-28T03:00:09.743Z,976.33
2017-10-28T03:01:19.445Z,976.29
2017-10-28T03:02:28.805Z,976.33
2017-10-28T03:03:37.501Z,976.26
2017-10-28T03:04:46.200Z,976.27
2017-10-28T03:05:55.233Z,976.22
2017-10-28T03:07:04.272Z,976.21
2017-10-28T03:08:13.637Z,976.17
2017-10-28T03:09:22.662Z,976.14
2017-10-28T03:10:31.360Z,976.11
2017-10-28T03:11:40.391Z,976.17
2017-10-28T03:12:49.434Z,976.13
2017-10-28T03:13:58.472Z,976.11
2017-10-28T03:15:07.500Z,976.07
2017-10-28T03:16:16.531Z,976.12
2017-10-28T03:17:25.570Z,976.15
2017-10-28T03:18:35.269Z,976.18
2017-10-28T03:19:44.297Z,976.16
2017-10-28T03:20:52.999Z,976.24
2017-10-28T03:22:02.364Z,976.25
2017-10-28T03:23:11.057Z,976.26
2017-10-28T03:24:20.419Z,976.21
2017-10-28T03:25:29.785Z,976.13
2017-10-28T03:26:38.805Z,976.08
2017-10-28T03:27:47.839Z,976.04
2017-10-28T03:28:57.197Z,976.05
2017-10-28T03:30:06.232Z,976.01
2017-10-28T03:31:15.599Z,975.92
2017-10-28T03:32:24.635Z,975.92
2017-10-28T03:33:33.665Z,975.89
2017-10-28T03:34:42.707Z,975.87
2017-10-28T03:35:51.741Z,975.8
2017-10-28T03:37:00.764Z,975.83
2017-10-28T03:38:09.464Z,975.86
2017-10-28T03:39:18.495Z,975.85
2017-10-28T03:40:27.191Z,975.78
2017-10-28T03:41:35.888Z,975.82
2017-10-28T03:42:45.255Z,975.78
2017-10-28T03:43:54.618Z,975.72
2017-10-28T03:45:03.991Z,975.75
2017-10-28T03:46:13.025Z,975.66
2017-10-28T03:47:22.387Z,975.62
2017-10-28T03:48:31.746Z,975.61
2017-10-28T03:49:40.783Z,975.59
2017-10-28T03:50:49.799Z,975.57
2017-10-28T03:51:59.161Z,975.54
2017-10-28T03:53:08.524Z,975.6
2017-10-28T03:54:17.557Z,975.62
2017-10-28T03:55:26.261Z,975.57
2017-10-28T03:56:35.300Z,975.68
2017-10-28T03:57:44.335Z,975.58
2017-10-28T03:58:54.030Z,975.56
2017-10-28T04:00:03.058Z,975.47
2017-10-28T04:01:12.089Z,975.44
2017-10-28T04:02:21.122Z,975.32
2017-10-28T04:03:29.818Z,975.25
2017-10-28T04:04:39.181Z,975.27
2017-10-28T04:05:48.543Z,975.25
2017-10-28T04:06:57.902Z,975.24
2017-10-28T04:08:06.940Z,975.2
2017-10-28T04:09:15.969Z,975.16
2017-10-28T04:10:25.002Z,975.11
2017-10-28T04:11:33.699Z,975.09
2017-10-28T04:12:42.729Z,975.2
2017-10-28T04:13:51.762Z,975.21
2017-10-28T04:15:00.457Z,975.27
2017-10-28T04:16:09.488Z,975.29
2017-10-28T04:17:18.516Z,975.29
2017-10-28T04:18:27.546Z,975.24
2017-10-28T04:19:36.909Z,975.27
2017-10-28T04:20:45.610Z,975.19
2017-10-28T04:21:55.301Z,975.18
2017-10-28T04:23:04.993Z,975.22
2017-10-28T04:24:14.352Z,975.26
2017-10-28T04:25:23.710Z,975.23
2017-10-28T04:26:32.746Z,975.19
2017-10-28T04:27:41.776Z,975.22
2017-10-28T04:28:51.137Z,975.23
2017-10-28T04:30:00.497Z,975.28
2017-10-28T04:31:09.527Z,975.31
2017-10-28T04:32:18.228Z,975.37
2017-10-28T04:33:27.920Z,975.37
2017-10-28T04:34:36.952Z,975.41
2017-10-28T04:35:46.322Z,975.34
2017-10-28T04:36:55.347Z,975.35
2017-10-28T04:38:04.756Z,975.31
2017-10-28T04:39:14.131Z,975.27
2017-10-28T04:40:23.162Z,975.28
2017-10-28T04:41:32.526Z,975.29
2017-10-28T04:42:41.220Z,975.26
2017-10-28T04:43:50.250Z,975.22
2017-10-28T04:44:58.945Z,975.21
2017-10-28T04:46:07.978Z,975.09
2017-10-28T04:47:17.670Z,975.05
2017-10-28T04:48:27.366Z,974.96
2017-10-28T04:49:36.396Z,975
2017-10-28T04:50:45.423Z,974.97
2017-10-28T04:51:54.787Z,974.93
2017-10-28T04:53:03.820Z,974.99
2017-10-28T04:54:12.519Z,974.9
2017-10-28T04:55:21.217Z,974.91
2017-10-28T04:56:30.587Z,974.92
2017-10-28T04:57:39.288Z,974.83
2017-10-28T04:58:48.986Z,974.67
2017-10-28T04:59:58.046Z,974.73
2017-10-28T05:01:07.407Z,974.82
2017-10-28T05:02:16.435Z,974.83
2017-10-28T05:03:25.807Z,974.82
2017-10-28T05:04:35.175Z,974.78
2017-10-28T05:05:43.869Z,974.78
2017-10-28T05:06:52.898Z,974.72
2017-10-28T05:08:02.596Z,974.65
2017-10-28T05:09:11.965Z,974.62
2017-10-28T05:10:20.997Z,974.64
2017-10-28T05:11:30.360Z,974.58
2017-10-28T05:12:39.059Z,974.58
2017-10-28T05:13:48.431Z,974.57
2017-10-28T05:14:57.461Z,974.55
2017-10-28T05:16:06.823Z,974.57
2017-10-28T05:17:16.190Z,974.42
2017-10-28T05:18:25.225Z,974.42
2017-10-28T05:19:34.589Z,974.29
2017-10-28T05:20:43.292Z,974.27
2017-10-28T05:21:52.327Z,974.17
2017-10-28T05:23:01.026Z,974.16
2017-10-28T05:24:10.403Z,974.14
2017-10-28T05:25:20.443Z,974.09
2017-10-28T05:26:29.815Z,974.04
2017-10-28T05:27:38.844Z,974.09
2017-10-28T05:28:47.870Z,974.17
2017-10-28T05:29:57.242Z,974.03
2017-10-28T05:31:06.279Z,974.01
2017-10-28T05:32:14.980Z,973.96
2017-10-28T05:33:24.019Z,973.99
2017-10-28T05:34:33.745Z,973.92
2017-10-28T05:35:43.104Z,973.91
2017-10-28T05:36:52.141Z,973.88
2017-10-28T05:38:01.173Z,973.86
2017-10-28T05:39:10.210Z,973.92
2017-10-28T05:40:19.231Z,973.89
2017-10-28T05:41:27.929Z,973.86
2017-10-28T05:42:36.623Z,973.74
2017-10-28T05:43:45.656Z,973.75
2017-10-28T05:44:54.685Z,973.76
2017-10-28T05:46:04.050Z,973.85
2017-10-28T05:47:12.748Z,973.73
2017-10-28T05:48:21.441Z,973.77
2017-10-28T05:49:30.150Z,973.82
2017-10-28T05:50:39.515Z,973.86
2017-10-28T05:51:48.881Z,973.86
2017-10-28T05:52:57.577Z,973.89
2017-10-28T05:54:06.273Z,973.88
2017-10-28T05:55:15.303Z,973.91
2017-10-28T05:56:25.006Z,973.96
2017-10-28T05:57:34.037Z,973.9
2017-10-28T05:58:43.098Z,973.96
2017-10-28T05:59:52.125Z,973.98
2017-10-28T06:01:01.819Z,973.91
2017-10-28T06:02:11.181Z,973.87
2017-10-28T06:03:20.566Z,973.81
2017-10-28T06:04:29.927Z,973.76
2017-10-28T06:05:39.291Z,973.76
2017-10-28T06:06:48.321Z,973.79
2017-10-28T06:07:57.343Z,973.74
2017-10-28T06:09:06.377Z,973.75
2017-10-28T06:10:15.408Z,973.74
2017-10-28T06:11:24.777Z,973.64
2017-10-28T06:12:33.807Z,973.61
2017-10-28T06:13:42.837Z,973.59
2017-10-28T06:14:52.235Z,973.47
2017-10-28T06:16:01.270Z,973.47
2017-10-28T06:17:09.965Z,973.48
2017-10-28T06:18:19.327Z,973.51
2017-10-28T06:19:28.024Z,973.44
2017-10-28T06:20:37.389Z,973.44
2017-10-28T06:21:47.088Z,973.36
2017-10-28T06:22:56.119Z,973.45
2017-10-28T06:24:05.150Z,973.46
2017-10-28T06:25:14.858Z,973.47
2017-10-28T06:26:24.225Z,973.44
2017-10-28T06:27:33.586Z,973.29
2017-10-28T06:28:42.281Z,973.27
2017-10-28T06:29:51.645Z,973.23
2017-10-28T06:31:00.673Z,973.24
2017-10-28T06:32:10.377Z,973.18
2017-10-28T06:33:19.409Z,973.11
2017-10-28T06:34:28.772Z,973.05
2017-10-28T06:35:38.809Z,973.1
2017-10-28T06:36:47.833Z,973.11
2017-10-28T06:37:56.541Z,973.12
2017-10-28T06:39:05.238Z,973.12
2017-10-28T06:40:14.261Z,973.23
2017-10-28T06:41:23.293Z,973.29
2017-10-28T06:42:31.987Z,973.36
2017-10-28T06:43:41.018Z,973.41
2017-10-28T06:44:50.053Z,973.38
2017-10-28T06:45:59.074Z,973.45
2017-10-28T06:47:08.113Z,973.54
2017-10-28T06:48:17.472Z,973.39
2017-10-28T06:49:26.505Z,973.39
2017-10-28T06:50:35.542Z,973.37
2017-10-28T06:51:44.244Z,973.51
2017-10-28T06:52:53.597Z,973.5
2017-10-28T06:54:02.296Z,973.42
2017-10-28T06:55:11.661Z,973.49
2017-10-28T06:56:21.027Z,973.54
2017-10-28T06:57:30.388Z,973.53
2017-10-28T06:58:39.418Z,973.45
2017-10-28T06:59:48.444Z,973.52
2017-10-28T07:00:58.141Z,973.52
2017-10-28T07:02:06.834Z,973.54
2017-10-28T07:03:15.871Z,973.59
2017-10-28T07:04:24.902Z,973.58
2017-10-28T07:05:34.260Z,973.46
2017-10-28T07:06:43.294Z,973.48
2017-10-28T07:07:52.657Z,973.62
2017-10-28T07:09:01.358Z,973.61
2017-10-28T07:10:10.389Z,973.51
2017-10-28T07:11:19.423Z,973.47
2017-10-28T07:12:28.464Z,973.39
2017-10-28T07:13:37.508Z,973.36
2017-10-28T07:14:46.208Z,973.42
2017-10-28T07:15:55.570Z,973.52
2017-10-28T07:17:05.272Z,973.73
2017-10-28T07:18:13.971Z,973.53
2017-10-28T07:19:23.335Z,973.57
2017-10-28T07:20:32.694Z,973.44
2017-10-28T07:21:41.396Z,973.51
2017-10-28T07:22:50.422Z,973.56
2017-10-28T07:23:59.122Z,973.46
2017-10-28T07:25:08.489Z,973.36
2017-10-28T07:26:17.522Z,973.33
2017-10-28T07:27:26.556Z,973.5
2017-10-28T07:28:35.922Z,973.46
2017-10-28T07:29:44.955Z,973.51
2017-10-28T07:30:54.671Z,973.59
2017-10-28T07:32:03.721Z,973.61
2017-10-28T07:33:12.425Z,973.65
2017-10-28T07:34:21.455Z,973.61
2017-10-28T07:35:30.489Z,973.59
2017-10-28T07:36:39.523Z,973.63
2017-10-28T07:37:49.217Z,973.59
2017-10-28T07:38:58.245Z,973.6
2017-10-28T07:40:07.647Z,973.56
2017-10-28T07:41:17.376Z,973.52
2017-10-28T07:42:26.405Z,973.54
2017-10-28T07:43:35.765Z,973.37
2017-10-28T07:44:44.464Z,973.33
2017-10-28T07:45:53.824Z,973.38
2017-10-28T07:47:03.190Z,973.4
2017-10-28T07:48:12.885Z,973.48
2017-10-28T07:49:21.917Z,973.44
2017-10-28T07:50:30.610Z,973.4
2017-10-28T07:51:39.311Z,973.5
2017-10-28T07:52:48.680Z,973.45
2017-10-28T07:53:58.380Z,973.44
2017-10-28T07:55:07.411Z,973.43
2017-10-28T07:56:16.453Z,973.31
2017-10-28T07:57:25.151Z,973.33
2017-10-28T07:58:33.851Z,973.21
2017-10-28T07:59:43.211Z,973.28
2017-10-28T08:00:52.908Z,973.31
2017-10-28T08:02:02.273Z,973.4
2017-10-28T08:03:11.301Z,973.46
2017-10-28T08:04:19.994Z,973.41
2017-10-28T08:05:29.688Z,973.31
2017-10-28T08:06:38.384Z,973.24
2017-10-28T08:07:47.426Z,973.08
2017-10-28T08:08:56.781Z,972.97
2017-10-28T08:10:05.479Z,972.81
2017-10-28T08:11:14.509Z,972.67
2017-10-28T08:12:23.206Z,972.65
2017-10-28T08:13:32.576Z,972.65
2017-10-28T08:14:41.601Z,972.66
2017-10-28T08:15:50.963Z,972.72
2017-10-28T08:16:59.659Z,972.84
2017-10-28T08:18:08.359Z,972.9
2017-10-28T08:19:17.396Z,972.96
2017-10-28T08:20:26.431Z,972.97
2017-10-28T08:21:35.473Z,972.98
2017-10-28T08:22:44.851Z,973
2017-10-28T08:23:53.879Z,973
2017-10-28T08:25:02.577Z,973.15
2017-10-28T08:26:11.955Z,973.27
2017-10-28T08:27:20.685Z,973.32
2017-10-28T08:28:29.381Z,973.25
2017-10-28T08:29:38.409Z,973.27
2017-10-28T08:30:47.441Z,973.32
2017-10-28T08:31:56.143Z,973.25
2017-10-28T08:33:04.840Z,973.33
2017-10-28T08:34:14.203Z,973.39
2017-10-28T08:35:23.564Z,973.41
2017-10-28T08:36:32.920Z,973.42
2017-10-28T08:37:42.283Z,973.33
2017-10-28T08:38:51.978Z,973.35
2017-10-28T08:40:00.673Z,973.35
2017-10-28T08:41:09.366Z,973.23
2017-10-28T08:42:18.731Z,973.14
2017-10-28T08:43:27.428Z,973.13
2017-10-28T08:44:36.123Z,973.15
2017-10-28T08:45:45.151Z,973.18
2017-10-28T08:46:54.517Z,973.18
2017-10-28T08:48:03.553Z,973.13
2017-10-28T08:49:12.916Z,973.03
2017-10-28T08:50:22.280Z,973.11
2017-10-28T08:51:31.658Z,972.99
2017-10-28T08:52:41.025Z,972.93
2017-10-28T08:53:50.059Z,972.98
2017-10-28T08:54:59.446Z,973.02
2017-10-28T08:56:08.810Z,972.98
2017-10-28T08:57:18.166Z,972.98
2017-10-28T08:58:27.197Z,972.98
2017-10-28T08:59:36.235Z,972.89
2017-10-28T09:00:45.275Z,972.88
2017-10-28T09:01:54.640Z,972.89
2017-10-28T09:03:04.005Z,972.88
2017-10-28T09:04:13.039Z,972.85
2017-10-28T09:05:21.733Z,972.84
2017-10-28T09:06:30.427Z,972.8
2017-10-28T09:07:39.459Z,972.76
2017-10-28T09:08:48.489Z,972.77
2017-10-28T09:09:57.522Z,972.76
2017-10-28T09:11:06.554Z,972.7
2017-10-28T09:12:15.924Z,972.7
2017-10-28T09:13:25.623Z,972.69
2017-10-28T09:14:34.655Z,972.68
2017-10-28T09:15:43.688Z,972.66
2017-10-28T09:16:53.385Z,972.68
2017-10-28T09:18:02.751Z,972.68
2017-10-28T09:19:11.782Z,972.6
2017-10-28T09:20:20.814Z,972.62
2017-10-28T09:21:30.180Z,972.53
2017-10-28T09:22:39.874Z,972.52
2017-10-28T09:23:49.232Z,972.55
2017-10-28T09:24:58.267Z,972.53
2017-10-28T09:26:06.966Z,972.57
2017-10-28T09:27:15.665Z,972.49
2017-10-28T09:28:25.029Z,972.56
2017-10-28T09:29:33.724Z,972.53
2017-10-28T09:30:42.755Z,972.51
2017-10-28T09:31:51.803Z,972.42
2017-10-28T09:33:00.836Z,972.42
2017-10-28T09:34:09.534Z,972.43
2017-10-28T09:35:18.889Z,972.43
2017-10-28T09:36:28.253Z,972.51
2017-10-28T09:37:37.287Z,972.46
2017-10-28T09:38:45.984Z,972.4
2017-10-28T09:39:55.396Z,972.42
2017-10-28T09:41:04.095Z,972.45
2017-10-28T09:42:13.790Z,972.34
2017-10-28T09:43:22.819Z,972.31
2017-10-28T09:44:31.517Z,972.28
2017-10-28T09:45:40.564Z,972.2
2017-10-28T09:46:49.593Z,972.08
2017-10-28T09:47:58.629Z,972.08
2017-10-28T09:49:07.988Z,972.13
2017-10-28T09:50:17.024Z,972.09
2017-10-28T09:51:26.387Z,972.1
2017-10-28T09:52:35.419Z,972.16
2017-10-28T09:53:44.111Z,972.16
2017-10-28T09:54:53.474Z,972.13
2017-10-28T09:56:02.502Z,972.14
2017-10-28T09:57:11.210Z,972.1
2017-10-28T09:58:20.241Z,972
2017-10-28T09:59:29.274Z,972.04
2017-10-28T10:00:38.659Z,972.04
2017-10-28T10:01:47.356Z,972
2017-10-28T10:02:56.721Z,972.05
2017-10-28T10:04:05.760Z,972.11
2017-10-28T10:05:15.126Z,972.03
2017-10-28T10:06:24.489Z,972.07
2017-10-28T10:07:34.523Z,971.99
2017-10-28T10:08:43.890Z,972.14
2017-10-28T10:09:52.591Z,972.01
2017-10-28T10:11:02.288Z,972.09
2017-10-28T10:12:11.649Z,972.14
2017-10-28T10:13:21.011Z,972.14
2017-10-28T10:14:30.372Z,972.14
2017-10-28T10:15:39.071Z,972.02
2017-10-28T10:16:48.103Z,972.07
2017-10-28T10:17:57.478Z,972.08
2017-10-28T10:19:06.515Z,972.08
2017-10-28T10:20:15.216Z,971.99
2017-10-28T10:21:24.246Z,971.92
2017-10-28T10:22:33.608Z,971.93
2017-10-28T10:23:42.630Z,971.92
2017-10-28T10:24:51.328Z,971.95
2017-10-28T10:26:00.025Z,971.97
2017-10-28T10:27:08.724Z,971.94
2017-10-28T10:28:17.760Z,972.01
2017-10-28T10:29:26.449Z,972
2017-10-28T10:30:35.815Z,972.07
2017-10-28T10:31:44.844Z,972.05
2017-10-28T10:32:54.890Z,972.13
2017-10-28T10:34:04.251Z,972.13
2017-10-28T10:35:13.286Z,972.13
2017-10-28T10:36:22.318Z,972.14
2017-10-28T10:37:31.680Z,972.09
2017-10-28T10:38:40.708Z,972.13
2017-10-28T10:39:49.739Z,972.05
2017-10-28T10:40:58.771Z,971.96
2017-10-28T10:42:08.139Z,971.99
2017-10-28T10:43:17.509Z,972.09
2017-10-28T10:44:26.207Z,972.02
2017-10-28T10:45:35.249Z,971.86
2017-10-28T10:46:44.614Z,971.87
2017-10-28T10:47:54.300Z,971.9
2017-10-28T10:49:03.331Z,971.85
2017-10-28T10:50:12.372Z,971.91
2017-10-28T10:51:21.404Z,971.74
2017-10-28T10:52:30.102Z,971.79
2017-10-28T10:53:39.135Z,971.83
2017-10-28T10:54:48.497Z,971.84
2017-10-28T10:55:57.531Z,971.78
2017-10-28T10:57:06.229Z,971.74
2017-10-28T10:58:15.595Z,971.74
2017-10-28T10:59:24.973Z,971.68
2017-10-28T11:00:34.337Z,971.56
2017-10-28T11:01:44.042Z,971.7
2017-10-28T11:02:53.072Z,971.71
2017-10-28T11:04:02.101Z,971.65
2017-10-28T11:05:11.133Z,971.65
2017-10-28T11:06:20.830Z,971.66
2017-10-28T11:07:30.202Z,971.63
2017-10-28T11:08:39.577Z,971.59
2017-10-28T11:09:48.606Z,971.55
2017-10-28T11:10:57.973Z,971.61
2017-10-28T11:12:07.664Z,971.48
2017-10-28T11:13:16.698Z,971.41
2017-10-28T11:14:25.392Z,971.28
2017-10-28T11:15:34.423Z,971.27
2017-10-28T11:16:44.138Z,971.16
2017-10-28T11:17:53.507Z,971.1
2017-10-28T11:19:02.556Z,971.02
2017-10-28T11:20:11.258Z,971.01
2017-10-28T11:21:20.291Z,971.04
2017-10-28T11:22:29.657Z,971.05
2017-10-28T11:23:38.687Z,971.19
2017-10-28T11:24:48.065Z,971.19
2017-10-28T11:25:57.096Z,971.2
2017-10-28T11:27:05.796Z,971.17
2017-10-28T11:28:15.821Z,971.15
2017-10-28T11:29:24.852Z,971.14
2017-10-28T11:30:33.889Z,971.09
2017-10-28T11:31:43.589Z,971.14
2017-10-28T11:32:53.302Z,971.14
2017-10-28T11:34:03.002Z,971.12
2017-10-28T11:35:12.036Z,971.02
2017-10-28T11:36:21.740Z,971
2017-10-28T11:37:30.439Z,970.99
2017-10-28T11:38:39.139Z,970.93
2017-10-28T11:39:48.202Z,970.97
2017-10-28T11:40:57.561Z,970.93
2017-10-28T11:42:06.263Z,970.91
2017-10-28T11:43:14.962Z,970.85
2017-10-28T11:44:24.329Z,970.82
2017-10-28T11:45:33.359Z,970.85
2017-10-28T11:46:42.727Z,970.88
2017-10-28T11:47:52.093Z,970.88
2017-10-28T11:49:01.791Z,970.81
2017-10-28T11:50:10.492Z,970.79
2017-10-28T11:51:19.854Z,970.8
2017-10-28T11:52:29.216Z,970.76
2017-10-28T11:53:38.246Z,970.69
2017-10-28T11:54:47.271Z,970.67
2017-10-28T11:55:55.971Z,970.68
2017-10-28T11:57:05.332Z,970.66
2017-10-28T11:58:15.026Z,970.74
2017-10-28T11:59:23.721Z,970.65
2017-10-28T12:00:32.428Z,970.58
2017-10-28T12:01:41.793Z,970.58
2017-10-28T12:02:50.491Z,970.51
2017-10-28T12:03:59.847Z,970.5
2017-10-28T12:05:09.208Z,970.42
2017-10-28T12:06:18.249Z,970.44
2017-10-28T12:07:26.947Z,970.41
2017-10-28T12:08:36.977Z,970.47
2017-10-28T12:09:46.013Z,970.49
2017-10-28T12:10:55.048Z,970.45
2017-10-28T12:12:04.080Z,970.46
2017-10-28T12:13:12.779Z,970.43
2017-10-28T12:14:21.809Z,970.46
2017-10-28T12:15:30.839Z,970.37
2017-10-28T12:16:39.542Z,970.31
2017-10-28T12:17:48.233Z,970.23
2017-10-28T12:18:56.931Z,970.23
2017-10-28T12:20:05.636Z,970.28
2017-10-28T12:21:14.669Z,970.29
2017-10-28T12:22:24.036Z,970.28
2017-10-28T12:23:33.402Z,970.21
2017-10-28T12:24:42.434Z,970.22
2017-10-28T12:25:52.128Z,970.25
2017-10-28T12:27:01.162Z,970.26
2017-10-28T12:28:10.530Z,970.31
2017-10-28T12:29:19.893Z,970.3
2017-10-28T12:30:28.932Z,970.28
2017-10-28T12:31:38.300Z,970.33
2017-10-28T12:32:46.998Z,970.31
2017-10-28T12:33:56.368Z,970.27
2017-10-28T12:35:05.066Z,970.25
2017-10-28T12:36:14.429Z,970.31
2017-10-28T12:37:24.472Z,970.24
2017-10-28T12:38:33.501Z,970.22
2017-10-28T12:39:42.543Z,970.22
2017-10-28T12:40:51.570Z,970.22
2017-10-28T12:42:00.936Z,970.2
2017-10-28T12:43:09.970Z,970.15
2017-10-28T12:44:18.671Z,970.11
2017-10-28T12:45:27.695Z,970.06
2017-10-28T12:46:36.396Z,970.09
2017-10-28T12:47:46.096Z,970.03
2017-10-28T12:48:54.797Z,970.02
2017-10-28T12:50:03.833Z,970
2017-10-28T12:51:13.195Z,969.97
2017-10-28T12:52:22.228Z,969.91
2017-10-28T12:53:31.257Z,969.86
2017-10-28T12:54:40.291Z,969.87
2017-10-28T12:55:49.671Z,969.78
2017-10-28T12:56:58.387Z,969.73
2017-10-28T12:58:07.427Z,969.6
2017-10-28T12:59:16.475Z,969.55
2017-10-28T13:00:25.485Z,969.48
2017-10-28T13:01:34.186Z,969.46
2017-10-28T13:02:43.218Z,969.38
2017-10-28T13:03:51.918Z,969.38
2017-10-28T13:05:00.618Z,969.38
2017-10-28T13:06:09.661Z,969.44
2017-10-28T13:07:18.691Z,969.36
2017-10-28T13:08:28.055Z,969.51
2017-10-28T13:09:37.416Z,969.56
2017-10-28T13:10:46.115Z,969.52
2017-10-28T13:11:55.478Z,969.5
2017-10-28T13:13:04.175Z,969.47
2017-10-28T13:14:13.206Z,969.46
2017-10-28T13:15:22.567Z,969.41
2017-10-28T13:16:31.268Z,969.4
2017-10-28T13:17:41.309Z,969.38
2017-10-28T13:18:50.337Z,969.33
2017-10-28T13:19:59.369Z,969.37
2017-10-28T13:21:08.733Z,969.29
2017-10-28T13:22:17.766Z,969.26
2017-10-28T13:23:27.130Z,969.27
2017-10-28T13:24:35.824Z,969.26
2017-10-28T13:25:44.517Z,969.12
2017-10-28T13:26:53.554Z,969.07
2017-10-28T13:28:02.252Z,969.11
2017-10-28T13:29:11.621Z,969.06
2017-10-28T13:30:20.653Z,969.13
2017-10-28T13:31:29.353Z,969.11
2017-10-28T13:32:38.723Z,969.04
2017-10-28T13:33:47.759Z,969.09
2017-10-28T13:34:57.453Z,968.99
2017-10-28T13:36:07.150Z,969.01
2017-10-28T13:37:16.518Z,968.96
2017-10-28T13:38:25.892Z,968.99
2017-10-28T13:39:35.250Z,969.03
2017-10-28T13:40:43.952Z,968.98
2017-10-28T13:41:52.654Z,968.89
2017-10-28T13:43:01.681Z,968.91
2017-10-28T13:44:10.716Z,968.91
2017-10-28T13:45:19.418Z,968.88
2017-10-28T13:46:28.478Z,968.87
2017-10-28T13:47:37.512Z,968.88
2017-10-28T13:48:47.211Z,968.77
2017-10-28T13:49:56.243Z,968.76
2017-10-28T13:51:05.602Z,968.74
2017-10-28T13:52:14.300Z,968.8
2017-10-28T13:53:23.991Z,968.75
2017-10-28T13:54:32.694Z,968.78
2017-10-28T13:55:41.722Z,968.78
2017-10-28T13:56:50.418Z,968.83
2017-10-28T13:57:59.444Z,968.86
2017-10-28T13:59:08.143Z,968.84
2017-10-28T14:00:17.176Z,968.86
2017-10-28T14:01:26.203Z,968.91
2017-10-28T14:02:35.718Z,968.87
2017-10-28T14:03:44.754Z,968.93
2017-10-28T14:04:53.783Z,968.97
2017-10-28T14:06:02.815Z,968.92
2017-10-28T14:07:11.516Z,968.97
2017-10-28T14:08:20.706Z,968.92
2017-10-28T14:09:29.731Z,968.93
2017-10-28T14:10:38.435Z,968.93
2017-10-28T14:11:47.126Z,968.89
2017-10-28T14:12:56.487Z,968.87
2017-10-28T14:14:05.851Z,968.9
2017-10-28T14:15:15.550Z,968.83
2017-10-28T14:16:24.919Z,968.9
2017-10-28T14:17:34.283Z,968.82
2017-10-28T14:18:43.649Z,968.77
2017-10-28T14:19:52.344Z,968.79
2017-10-28T14:21:01.373Z,968.72
2017-10-28T14:22:10.069Z,968.65
2017-10-28T14:23:18.766Z,968.61
2017-10-28T14:24:27.806Z,968.57